createdAt,value
2023-03-20T00:01:35.453Z,11.44
2023-03-20T00:04:10.414Z,11.48
2023-03-20T00:06:42.459Z,11.52
2023-03-20T00:09:14.981Z,11.56
2023-03-20T00:11:59.006Z,11.58
2023-03-20T00:14:31.551Z,11.58
2023-03-20T00:17:11.519Z,11.52
2023-03-20T00:19:47.005Z,11.60
2023-03-20T00:22:18.994Z,11.53
2023-03-20T00:24:51.117Z,11.57
2023-03-20T00:27:29.133Z,11.58
2023-03-20T00:30:01.165Z,11.50
2023-03-20T00:32:33.195Z,11.45
2023-03-20T00:35:24.358Z,11.51
2023-03-20T00:38:00.439Z,11.58
2023-03-20T00:40:35.880Z,11.59
2023-03-20T00:43:10.765Z,11.59
2023-03-20T00:45:45.595Z,11.56
2023-03-20T00:48:40.134Z,11.51
2023-03-20T00:51:12.204Z,11.51
2023-03-20T00:53:44.383Z,11.43
2023-03-20T00:56:41.074Z,11.46
2023-03-20T01:00:05.292Z,11.45
2023-03-20T01:02:37.659Z,11.44
2023-03-20T01:05:10.971Z,11.43
2023-03-20T01:07:43.098Z,11.36
2023-03-20T01:10:15.570Z,11.41
2023-03-20T01:12:48.125Z,11.34
2023-03-20T01:15:24.020Z,11.38
2023-03-20T01:17:56.140Z,11.36
2023-03-20T01:20:30.989Z,11.45
2023-03-20T01:23:03.030Z,11.26
2023-03-20T01:25:35.517Z,11.19
2023-03-20T01:28:34.226Z,11.13
2023-03-20T01:31:06.573Z,11.17
2023-03-20T01:33:40.288Z,11.20
2023-03-20T01:36:15.128Z,11.31
2023-03-20T01:38:54.417Z,11.33
2023-03-20T01:41:27.737Z,11.25
2023-03-20T01:44:16.343Z,11.17
2023-03-20T01:46:48.946Z,11.09
2023-03-20T01:49:23.519Z,10.95
2023-03-20T01:51:57.209Z,10.93
2023-03-20T01:54:34.884Z,10.91
2023-03-20T01:57:22.971Z,10.95
2023-03-20T02:00:03.667Z,11.02
2023-03-20T02:02:36.330Z,11.03
2023-03-20T02:05:11.896Z,11.02
2023-03-20T02:07:51.548Z,10.96
2023-03-20T02:10:23.910Z,10.87
2023-03-20T02:12:59.174Z,10.92
2023-03-20T02:15:31.903Z,10.77
2023-03-20T02:18:04.123Z,10.74
2023-03-20T02:20:54.223Z,10.66
2023-03-20T02:24:03.676Z,10.63
2023-03-20T02:27:15.523Z,10.69
2023-03-20T02:30:08.701Z,10.60
2023-03-20T02:33:28.171Z,10.59
2023-03-20T02:36:26.599Z,10.54
2023-03-20T02:39:16.365Z,10.55
2023-03-20T02:42:07.429Z,10.52
2023-03-20T02:45:17.460Z,10.56
2023-03-20T02:48:19.579Z,10.56
2023-03-20T02:52:10.169Z,10.60
2023-03-20T02:55:07.226Z,10.60
2023-03-20T02:58:24.509Z,10.58
2023-03-20T03:01:09.647Z,10.54
2023-03-20T03:03:51.974Z,10.59
2023-03-20T03:06:37.198Z,10.63
2023-03-20T03:09:18.770Z,10.66
2023-03-20T03:12:07.741Z,10.71
2023-03-20T03:14:47.289Z,10.70
2023-03-20T03:17:24.232Z,10.64
2023-03-20T03:20:06.132Z,10.66
2023-03-20T03:22:44.018Z,10.71
2023-03-20T03:25:16.180Z,10.73
2023-03-20T03:28:04.321Z,10.76
2023-03-20T03:31:11.275Z,10.76
2023-03-20T03:33:47.600Z,10.72
2023-03-20T03:36:41.565Z,10.67
2023-03-20T03:39:38.096Z,10.65
2023-03-20T03:42:41.491Z,10.56
2023-03-20T03:45:31.752Z,10.55
2023-03-20T03:48:12.863Z,10.53
2023-03-20T03:50:53.462Z,10.52
2023-03-20T03:53:40.350Z,10.57
2023-03-20T03:56:16.559Z,10.54
2023-03-20T03:58:53.808Z,10.56
2023-03-20T04:01:31.666Z,10.56
2023-03-20T04:04:08.060Z,10.61
2023-03-20T04:06:43.137Z,10.62
2023-03-20T04:09:20.938Z,10.63
2023-03-20T04:11:54.097Z,10.59
2023-03-20T04:14:26.434Z,10.57
2023-03-20T04:16:58.629Z,10.58
2023-03-20T04:19:30.756Z,10.55
2023-03-20T04:22:02.923Z,10.56
2023-03-20T04:24:58.560Z,10.42
2023-03-20T04:27:30.889Z,10.43
2023-03-20T04:30:05.763Z,10.51
2023-03-20T04:32:38.196Z,10.38
2023-03-20T04:35:10.564Z,10.26
2023-03-20T04:37:42.570Z,10.26
2023-03-20T04:40:15.085Z,10.37
2023-03-20T04:42:47.170Z,10.20
2023-03-20T04:45:19.349Z,10.06
2023-03-20T04:47:52.560Z,10.13
2023-03-20T04:50:24.675Z,10.22
2023-03-20T04:52:57.004Z,10.18
2023-03-20T04:55:29.187Z,10.28
2023-03-20T04:58:01.229Z,10.36
2023-03-20T05:00:33.952Z,10.35
2023-03-20T05:03:07.373Z,10.25
2023-03-20T05:05:39.571Z,10.29
2023-03-20T05:08:11.708Z,10.28
2023-03-20T05:10:45.606Z,10.22
2023-03-20T05:13:21.218Z,10.33
2023-03-20T05:16:13.947Z,10.30
2023-03-20T05:18:46.404Z,10.22
2023-03-20T05:21:18.659Z,10.14
2023-03-20T05:23:50.923Z,10.21
2023-03-20T05:26:22.986Z,10.25
2023-03-20T05:28:55.042Z,10.10
2023-03-20T05:31:27.102Z,10.24
2023-03-20T05:34:01.822Z,10.29
2023-03-20T05:36:33.904Z,10.26
2023-03-20T05:39:34.992Z,10.16
2023-03-20T05:42:10.023Z,10.12
2023-03-20T05:44:42.676Z,10.21
2023-03-20T05:47:14.990Z,10.26
2023-03-20T05:49:47.041Z,10.30
2023-03-20T05:52:19.151Z,10.33
2023-03-20T05:54:51.502Z,10.30
2023-03-20T05:57:23.604Z,10.19
2023-03-20T05:59:58.690Z,10.29
2023-03-20T06:02:30.752Z,10.33
2023-03-20T06:05:04.462Z,10.38
2023-03-20T06:07:36.519Z,10.23
2023-03-20T06:10:10.117Z,10.23
2023-03-20T06:12:42.164Z,10.27
2023-03-20T06:15:15.124Z,10.32
2023-03-20T06:17:47.248Z,10.35
2023-03-20T06:20:19.402Z,10.38
2023-03-20T06:22:51.973Z,10.41
2023-03-20T06:25:24.004Z,10.36
2023-03-20T06:27:56.189Z,10.19
2023-03-20T06:30:29.512Z,10.34
2023-03-20T06:33:01.694Z,10.29
2023-03-20T06:35:34.530Z,10.34
2023-03-20T06:38:17.445Z,10.40
2023-03-20T06:40:52.155Z,10.45
2023-03-20T06:43:24.187Z,10.43
2023-03-20T06:45:56.222Z,10.35
2023-03-20T06:48:28.516Z,10.38
2023-03-20T06:51:00.660Z,10.38
2023-03-20T06:53:35.830Z,10.48
2023-03-20T06:56:10.272Z,10.57
2023-03-20T06:58:52.405Z,10.48
2023-03-20T07:01:28.326Z,10.63
2023-03-20T07:04:01.330Z,10.69
2023-03-20T07:06:34.129Z,10.68
2023-03-20T07:09:07.872Z,10.72
2023-03-20T07:14:26.578Z,10.34
2023-03-20T07:17:01.543Z,10.32
2023-03-20T07:19:34.562Z,10.22
2023-03-20T07:22:18.522Z,10.33
2023-03-20T07:24:50.821Z,10.35
2023-03-20T07:27:23.375Z,10.35
2023-03-20T07:29:56.995Z,10.30
2023-03-20T07:32:29.002Z,10.27
2023-03-20T07:35:01.801Z,10.41
2023-03-20T07:37:33.804Z,10.54
2023-03-20T07:40:07.069Z,10.46
2023-03-20T07:42:44.976Z,10.59
2023-03-20T07:45:19.699Z,10.49
2023-03-20T07:47:51.873Z,10.53
2023-03-20T07:50:25.536Z,10.25
2023-03-20T07:52:57.708Z,10.43
2023-03-20T07:55:29.757Z,10.54
2023-03-20T07:58:01.842Z,10.47
2023-03-20T08:00:50.961Z,10.44
2023-03-20T08:03:23.132Z,10.56
2023-03-20T08:05:55.635Z,10.50
2023-03-20T08:08:27.924Z,10.48
2023-03-20T08:11:00.183Z,10.60
2023-03-20T08:13:32.896Z,10.72
2023-03-20T08:16:06.158Z,10.80
2023-03-20T08:18:42.803Z,10.87
2023-03-20T08:21:14.874Z,11.03
2023-03-20T08:23:46.989Z,11.15
2023-03-20T08:26:20.579Z,11.22
2023-03-20T08:28:52.817Z,11.31
2023-03-20T08:31:26.019Z,11.45
2023-03-20T08:33:58.224Z,11.23
2023-03-20T08:36:30.416Z,11.33
2023-03-20T08:39:02.426Z,11.15
2023-03-20T08:41:39.011Z,11.31
2023-03-20T08:44:11.894Z,11.23
2023-03-20T08:46:44.966Z,10.81
2023-03-20T08:49:17.291Z,10.85
2023-03-20T08:51:49.546Z,10.92
2023-03-20T08:54:21.645Z,11.05
2023-03-20T08:56:54.977Z,11.32
2023-03-20T08:59:27.074Z,11.43
2023-03-20T09:01:59.292Z,11.34
2023-03-20T09:04:31.466Z,11.47
2023-03-20T09:07:03.686Z,11.54
2023-03-20T09:09:36.281Z,11.71
2023-03-20T09:23:49.779Z,11.69
2023-03-20T09:58:30.000Z,12.13
2023-03-20T10:13:37.473Z,12.16
2023-03-20T10:16:49.263Z,12.06
2023-03-20T10:19:34.714Z,12.00
2023-03-20T10:22:14.684Z,11.76
2023-03-20T10:25:07.931Z,11.83
2023-03-20T10:28:00.836Z,11.55
2023-03-20T10:30:46.690Z,11.56
2023-03-20T10:34:09.420Z,11.80
2023-03-20T10:37:09.323Z,11.71
2023-03-20T10:40:23.569Z,11.72
2023-03-20T10:43:36.040Z,11.67
2023-03-20T10:46:29.297Z,11.77
2023-03-20T10:49:51.678Z,12.00
2023-03-20T10:52:29.826Z,12.16
2023-03-20T10:55:13.573Z,12.26
2023-03-20T10:57:55.292Z,12.22
2023-03-20T11:00:28.718Z,12.14
2023-03-20T11:03:02.524Z,12.54
2023-03-20T11:05:58.624Z,12.86
2023-03-20T11:08:42.800Z,13.04
2023-03-20T11:11:28.308Z,12.80
2023-03-20T11:14:38.038Z,12.98
2023-03-20T11:17:13.808Z,13.22
2023-03-20T11:19:45.872Z,13.61
2023-03-20T11:22:26.696Z,13.98
2023-03-20T11:25:03.458Z,13.70
2023-03-20T11:30:30.022Z,13.08
2023-03-20T11:33:03.625Z,13.19
2023-03-20T11:35:36.302Z,13.32
2023-03-20T11:38:18.432Z,13.57
2023-03-20T11:40:54.975Z,13.37
2023-03-20T11:43:28.808Z,13.23
2023-03-20T11:46:04.510Z,13.44
2023-03-20T11:48:41.477Z,13.67
2023-03-20T11:51:22.925Z,13.61
2023-03-20T11:54:06.364Z,13.68
2023-03-20T11:56:38.969Z,13.84
2023-03-20T11:59:11.981Z,13.70
2023-03-20T12:01:51.564Z,14.05
2023-03-20T12:04:42.138Z,13.98
2023-03-20T12:07:42.927Z,14.14
2023-03-20T12:10:15.982Z,14.22
2023-03-20T12:12:55.031Z,14.64
2023-03-20T12:15:47.681Z,14.51
2023-03-20T12:18:39.203Z,14.52
2023-03-20T12:21:28.768Z,13.84
2023-03-20T12:24:25.695Z,13.68
2023-03-20T12:27:17.873Z,13.62
2023-03-20T12:30:12.852Z,13.51
2023-03-20T12:33:16.053Z,13.46
2023-03-20T12:35:52.368Z,13.48
2023-03-20T12:39:25.529Z,13.21
2023-03-20T12:42:07.426Z,13.06
2023-03-20T12:45:32.907Z,12.81
2023-03-20T12:48:53.867Z,12.62
2023-03-20T12:51:41.180Z,12.53
2023-03-20T12:54:20.316Z,12.45
2023-03-20T12:57:10.487Z,12.62
2023-03-20T12:59:57.603Z,12.60
2023-03-20T13:03:04.810Z,12.79
2023-03-20T13:06:36.820Z,12.81
2023-03-20T13:09:20.953Z,12.81
2023-03-20T13:12:01.893Z,12.91
2023-03-20T13:15:35.534Z,13.05
2023-03-20T13:19:02.171Z,12.57
2023-03-20T13:21:46.835Z,12.40
2023-03-20T13:24:30.853Z,12.61
2023-03-20T13:30:49.927Z,12.72
2023-03-20T13:33:43.620Z,12.48
2023-03-20T13:36:44.060Z,12.31
2023-03-20T13:39:37.941Z,12.40
2023-03-20T13:42:22.958Z,12.42
2023-03-20T13:46:21.392Z,12.56
2023-03-20T13:48:59.234Z,12.61
2023-03-20T13:51:40.224Z,12.72
2023-03-20T13:54:58.976Z,12.94
2023-03-20T13:58:26.176Z,12.92
2023-03-20T14:01:38.722Z,12.80
2023-03-20T14:04:19.283Z,12.75
2023-03-20T14:07:50.140Z,12.92
2023-03-20T14:11:25.034Z,12.58
2023-03-20T14:14:20.125Z,12.49
2023-03-20T14:17:26.651Z,12.46
2023-03-20T14:21:05.526Z,12.55
2023-03-20T14:23:44.905Z,12.47
2023-03-20T14:26:57.551Z,12.58
2023-03-20T14:29:29.647Z,12.42
2023-03-20T14:32:16.936Z,12.18
2023-03-20T14:35:26.982Z,12.34
2023-03-20T14:38:42.980Z,12.26
2023-03-20T14:42:07.850Z,12.30
2023-03-20T14:45:13.790Z,12.07
2023-03-20T14:48:17.195Z,12.09
2023-03-20T14:51:39.665Z,11.78
2023-03-20T14:54:41.754Z,11.95
2023-03-20T14:57:35.747Z,11.67
2023-03-20T15:00:24.004Z,11.54
2023-03-20T15:03:16.563Z,11.80
2023-03-20T15:05:58.626Z,11.71
2023-03-20T15:08:36.537Z,11.48
2023-03-20T15:11:12.617Z,11.60
2023-03-20T15:13:46.663Z,11.51
2023-03-20T15:16:31.275Z,11.66
2023-03-20T15:19:15.618Z,11.88
2023-03-20T15:21:48.813Z,11.88
2023-03-20T15:24:27.799Z,11.70
2023-03-20T15:27:03.132Z,11.59
2023-03-20T15:29:35.348Z,11.74
2023-03-20T15:32:14.820Z,11.94
2023-03-20T15:34:49.512Z,11.80
2023-03-20T15:37:25.116Z,11.56
2023-03-20T15:39:59.280Z,11.52
2023-03-20T15:42:32.886Z,11.29
2023-03-20T15:45:23.774Z,11.21
2023-03-20T15:48:17.786Z,11.20
2023-03-20T15:50:57.490Z,11.31
2023-03-20T15:53:40.538Z,11.47
2023-03-20T15:56:19.210Z,11.51
2023-03-20T15:58:52.682Z,11.49
2023-03-20T16:01:26.525Z,11.46
2023-03-20T16:04:00.111Z,11.30
2023-03-20T16:07:01.721Z,11.16
2023-03-20T16:09:44.331Z,11.08
2023-03-20T16:12:33.823Z,11.20
2023-03-20T16:15:06.860Z,11.15
2023-03-20T16:17:39.042Z,11.11
2023-03-20T16:20:16.951Z,10.97
2023-03-20T16:22:50.387Z,11.05
2023-03-20T16:25:22.532Z,11.06
2023-03-20T16:27:55.530Z,10.94
2023-03-20T16:30:33.325Z,10.92
2023-03-20T16:33:17.050Z,10.86
2023-03-20T16:35:50.950Z,10.78
2023-03-20T16:38:34.110Z,10.83
2023-03-20T16:41:28.179Z,10.94
2023-03-20T16:44:08.231Z,10.96
2023-03-20T16:47:24.514Z,10.92
2023-03-20T16:50:12.791Z,10.93
2023-03-20T16:52:57.921Z,10.84
2023-03-20T16:55:43.622Z,10.86
2023-03-20T16:58:21.108Z,10.64
2023-03-20T17:01:09.529Z,10.48
2023-03-20T17:03:52.694Z,10.36
2023-03-20T17:06:37.001Z,10.39
2023-03-20T17:09:33.511Z,10.41
2023-03-20T17:12:25.953Z,10.25
2023-03-20T17:14:58.060Z,10.31
2023-03-20T17:17:30.339Z,10.23
2023-03-20T17:20:02.582Z,10.14
2023-03-20T17:22:36.341Z,10.20
2023-03-20T17:25:09.288Z,10.28
2023-03-20T17:27:41.547Z,10.34
2023-03-20T17:30:24.055Z,10.34
2023-03-20T17:32:56.650Z,10.17
2023-03-20T17:35:28.846Z,10.00
2023-03-20T17:38:00.966Z,9.83
2023-03-20T17:40:32.945Z,9.73
2023-03-20T17:43:10.948Z,9.78
2023-03-20T17:45:44.440Z,9.66
2023-03-20T17:48:20.943Z,9.58
2023-03-20T17:50:53.051Z,9.49
2023-03-20T17:53:28.957Z,9.61
2023-03-20T17:56:01.684Z,9.61
2023-03-20T17:58:33.745Z,9.56
2023-03-20T18:01:07.218Z,9.50
2023-03-20T18:03:40.045Z,9.41
2023-03-20T18:06:38.737Z,9.45
2023-03-20T18:09:19.302Z,9.50
2023-03-20T18:11:51.332Z,9.55
2023-03-20T18:14:41.663Z,9.68
2023-03-20T18:17:15.154Z,9.69
2023-03-20T18:19:50.226Z,9.85
2023-03-20T18:22:22.374Z,9.82
2023-03-20T18:24:54.465Z,9.75
2023-03-20T18:27:26.709Z,9.68
2023-03-20T18:30:16.413Z,9.67
2023-03-20T18:32:49.205Z,9.67
2023-03-20T18:35:21.632Z,9.70
2023-03-20T18:37:53.650Z,9.64
2023-03-20T18:40:31.322Z,9.70
2023-03-20T18:43:03.752Z,9.72
2023-03-20T18:45:36.028Z,9.73
2023-03-20T18:48:12.551Z,9.69
2023-03-20T18:50:51.674Z,9.66
2023-03-20T18:53:23.763Z,9.77
2023-03-20T18:56:28.625Z,9.84
2023-03-20T18:59:08.920Z,9.78
2023-03-20T19:01:41.604Z,9.61
2023-03-20T19:04:16.557Z,9.69
2023-03-20T19:06:49.488Z,9.59
2023-03-20T19:09:26.823Z,9.49
2023-03-20T19:14:48.048Z,9.46
2023-03-20T19:17:28.992Z,9.49
2023-03-20T19:20:03.926Z,9.39
2023-03-20T19:22:44.678Z,9.39
2023-03-20T19:25:17.458Z,9.46
2023-03-20T19:27:49.838Z,9.43
2023-03-20T19:30:40.270Z,9.38
2023-03-20T19:33:14.923Z,9.39
2023-03-20T19:36:06.080Z,9.47
2023-03-20T19:38:43.459Z,9.41
2023-03-20T19:41:15.629Z,9.43
2023-03-20T19:43:53.645Z,9.43
2023-03-20T19:46:44.042Z,9.51
2023-03-20T19:49:30.072Z,9.60
2023-03-20T19:52:07.355Z,9.34
2023-03-20T19:54:50.067Z,9.25
2023-03-20T19:57:32.278Z,9.22
2023-03-20T20:01:11.149Z,9.12
2023-03-20T20:02:59.442Z,9.00
2023-03-20T20:05:37.375Z,9.08
2023-03-20T20:10:59.772Z,9.09
2023-03-20T20:13:43.834Z,9.13
2023-03-20T20:16:27.166Z,8.92
2023-03-20T20:25:18.999Z,8.89
2023-03-20T20:27:51.183Z,8.86
2023-03-20T20:30:23.570Z,8.87
2023-03-20T20:33:03.465Z,8.89
2023-03-20T20:36:57.535Z,8.89
2023-03-20T20:39:06.153Z,8.88
2023-03-20T20:41:45.164Z,8.84
2023-03-20T20:44:17.424Z,8.88
2023-03-20T20:47:05.903Z,8.88
2023-03-20T20:49:38.013Z,8.88
2023-03-20T20:52:26.068Z,8.92
2023-03-20T20:55:00.983Z,8.84
2023-03-20T20:57:42.557Z,8.77
2023-03-20T21:00:16.443Z,8.70
2023-03-20T21:02:52.163Z,8.73
2023-03-20T21:05:31.274Z,8.75
2023-03-20T21:08:03.762Z,8.70
2023-03-20T21:10:36.118Z,8.73
2023-03-20T21:16:06.201Z,8.71
2023-03-20T21:18:38.721Z,8.73
2023-03-20T21:21:13.795Z,8.71
2023-03-20T21:23:46.193Z,8.75
2023-03-20T21:26:18.729Z,8.76
2023-03-20T21:28:51.568Z,8.67
2023-03-20T21:31:30.427Z,8.72
2023-03-20T21:34:05.265Z,8.80
2023-03-20T21:36:37.500Z,8.77
2023-03-20T21:39:10.148Z,8.83
2023-03-20T21:41:42.221Z,8.89
2023-03-20T21:44:19.763Z,8.90
2023-03-20T21:50:42.142Z,8.79
2023-03-20T21:56:40.211Z,8.79
2023-03-20T21:59:12.811Z,8.81
2023-03-20T22:01:58.778Z,8.84
2023-03-20T22:05:16.308Z,8.96
2023-03-20T22:07:45.014Z,8.90
2023-03-20T22:10:54.681Z,8.91
2023-03-20T22:16:36.602Z,9.05
2023-03-20T22:27:56.509Z,9.01
2023-03-20T22:42:22.425Z,9.15
2023-03-20T22:47:24.111Z,9.11
2023-03-20T22:49:56.237Z,9.12
2023-03-20T22:52:41.704Z,9.15
2023-03-20T22:55:20.489Z,9.18
2023-03-20T22:58:06.473Z,9.13
2023-03-20T23:00:39.455Z,9.18
2023-03-20T23:03:22.388Z,9.09
2023-03-20T23:06:21.164Z,8.97
2023-03-20T23:09:03.137Z,9.01
2023-03-20T23:11:40.722Z,9.05
2023-03-20T23:14:20.746Z,9.14
2023-03-20T23:16:54.038Z,9.23
2023-03-20T23:19:26.623Z,9.28
2023-03-20T23:22:00.943Z,9.28
2023-03-20T23:24:32.955Z,9.28
2023-03-20T23:27:05.503Z,9.28
2023-03-20T23:29:37.459Z,9.24
2023-03-20T23:32:09.604Z,9.23
2023-03-20T23:34:41.653Z,9.26
2023-03-20T23:37:13.888Z,9.25
2023-03-20T23:39:45.982Z,9.28
2023-03-20T23:42:29.977Z,9.31
2023-03-20T23:45:17.145Z,9.32
2023-03-20T23:47:51.574Z,9.39
2023-03-20T23:50:31.937Z,9.38
2023-03-20T23:53:19.619Z,9.32
2023-03-20T23:55:56.333Z,9.33
2023-03-20T23:58:28.944Z,9.38
